This is the latest recevied weather packets stored in our database for station/object KR8N. If no packets are shown the sender has not sent any weather packets the latest 1 day(s).
| Time | Temp. | Humidity | Pressure | Rain* | Wind** | Luminosity | Snow |
|---|---|---|---|---|---|---|---|
| 1778061152 | 12.78° C | 94% | 1011.8 hPa | 7.87 mm | - | 0 W/m² | - |
| 1778060849 | 12.78° C | 94% | 1011.9 hPa | 3.05 mm | - | 0 W/m² | - |
| 1778060547 | 12.78° C | 93% | 1011.6 hPa | 3.05 mm | - | 0 W/m² | - |
| 1778059942 | 12.78° C | 93% | 1011.7 hPa | 3.05 mm | - | 0 W/m² | - |
| 1778059640 | 12.78° C | 93% | 1012 hPa | 4.83 mm | - | 0 W/m² | - |
| 1778059035 | 12.78° C | 91% | 1012 hPa | 1.78 mm | - | 0 W/m² | - |
| 1778058732 | 12.78° C | 90% | 1011.8 hPa | 1.27 mm | - | 0 W/m² | - |
| 1778058430 | 12.78° C | 91% | 1011.7 hPa | 1.27 mm | - | 0 W/m² | - |
| 1778057519 | 12.78° C | 91% | 1012 hPa | 3.05 mm | - | 0 W/m² | - |
| 1778057216 | 12.78° C | 91% | 1012 hPa | 3.05 mm | - | 0 W/m² | - |
| 1778056005 | 13.33° C | 84% | 1012.7 hPa | 6.1 mm | - | 0 W/m² | - |
| 1778055705 | 13.89° C | 81% | 1012.8 hPa | 6.1 mm | - | 0 W/m² | - |
| 1778055101 | 14.44° C | 76% | 1012.4 hPa | 3.05 mm | - | 0 W/m² | - |
| 1778054798 | 15° C | 73% | 1012.6 hPa | 1.78 mm | - | 0 W/m² | - |
| 1778053889 | 17.22° C | 59% | 1012.3 hPa | 0 mm | - | 0 W/m² | - |
| 1778053587 | 17.22° C | 55% | 1012.3 hPa | 0 mm | - | 0 W/m² | - |
| 1778053284 | 17.22° C | 53% | 1012.1 hPa | 0 mm | - | 0 W/m² | - |
| 1778052679 | 17.22° C | 53% | 1012 hPa | 0 mm | - | 0 W/m² | - |
| 1778052375 | 17.22° C | 54% | 1012.1 hPa | 0 mm | - | 0 W/m² | - |
| 1778051165 | 17.22° C | 52% | 1012.1 hPa | 0 mm | - | 0 W/m² | - |
| 1778049044 | 17.22° C | 52% | 1012.2 hPa | 0 mm | - | 0 W/m² | - |
| 1778048742 | 17.22° C | 51% | 1012.2 hPa | 0 mm | - | 0 W/m² | - |
| 1778048135 | 17.22° C | 51% | 1012.4 hPa | 0 mm | - | 0 W/m² | - |
| 1778047833 | 17.22° C | 50% | 1012.2 hPa | 0 mm | - | 0 W/m² | - |
| 1778047228 | 17.78° C | 51% | 1012.2 hPa | 0 mm | - | 0 W/m² | - |
* Rain latest hour (hover to see other rain measurements)
** Current wind speed in m/s (hover to see current wind gust speed)